createdAt,value
2019-05-20T00:00:00.951Z,5.20
2019-05-20T00:02:31.841Z,5.53
2019-05-20T00:05:00.951Z,5.30
2019-05-20T00:07:29.733Z,5.80
2019-05-20T00:09:58.531Z,5.90
2019-05-20T00:12:27.521Z,6.20
2019-05-20T00:14:56.382Z,5.37
2019-05-20T00:17:25.287Z,6.33
2019-05-20T00:19:55.904Z,5.93
2019-05-20T00:22:24.812Z,6.20
2019-05-20T00:24:53.902Z,6.10
2019-05-20T00:27:22.659Z,5.90
2019-05-20T00:29:51.531Z,7.27
2019-05-20T00:32:20.343Z,6.17
2019-05-20T00:34:49.498Z,6.93
2019-05-20T00:37:18.220Z,5.87
2019-05-20T00:39:47.020Z,7.47
2019-05-20T00:42:15.812Z,6.30
2019-05-20T00:44:44.552Z,6.70
2019-05-20T00:47:13.338Z,7.17
2019-05-20T00:49:42.160Z,7.03
2019-05-20T00:52:11.076Z,7.50
2019-05-20T00:54:40.914Z,6.83
2019-05-20T00:57:09.755Z,7.73
2019-05-20T00:59:38.638Z,7.73
2019-05-20T01:02:07.844Z,6.93
2019-05-20T01:04:36.700Z,7.80
2019-05-20T01:07:05.630Z,7.13
2019-05-20T01:09:34.885Z,7.60
2019-05-20T01:12:03.831Z,7.80
2019-05-20T01:14:32.853Z,7.67
2019-05-20T01:17:02.081Z,8.27
2019-05-20T01:19:31.135Z,8.13
2019-05-20T01:22:00.324Z,8.67
2019-05-20T01:24:29.188Z,8.13
2019-05-20T01:26:58.097Z,8.37
2019-05-20T01:29:26.959Z,8.50
2019-05-20T01:31:55.783Z,7.83
2019-05-20T01:34:24.555Z,8.13
2019-05-20T01:36:53.441Z,9.87
2019-05-20T01:39:22.276Z,9.40
2019-05-20T01:41:51.093Z,8.63
2019-05-20T01:44:22.912Z,8.23
2019-05-20T01:46:52.005Z,9.60
2019-05-20T01:49:20.904Z,10.53
2019-05-20T01:51:50.022Z,8.77
2019-05-20T01:54:18.867Z,8.73
2019-05-20T01:56:47.677Z,9.50
2019-05-20T01:59:16.472Z,9.10
2019-05-20T02:01:45.323Z,9.03
2019-05-20T02:04:14.167Z,9.27
2019-05-20T02:06:43.043Z,9.70
2019-05-20T02:09:11.918Z,10.03
2019-05-20T02:11:40.767Z,10.97
2019-05-20T02:14:13.539Z,10.43
2019-05-20T02:16:42.650Z,10.77
2019-05-20T02:19:11.480Z,11.73
2019-05-20T02:21:40.533Z,10.33
2019-05-20T02:24:09.347Z,10.60
2019-05-20T02:26:38.361Z,10.63
2019-05-20T02:29:07.137Z,11.13
2019-05-20T02:31:35.934Z,10.77
2019-05-20T02:34:04.824Z,10.40
2019-05-20T02:36:33.669Z,11.20
2019-05-20T02:39:02.384Z,10.80
2019-05-20T02:41:31.139Z,10.70
2019-05-20T02:43:59.863Z,12.03
2019-05-20T02:46:28.953Z,10.47
2019-05-20T02:48:57.786Z,12.90
2019-05-20T02:51:35.892Z,9.70
2019-05-20T02:54:04.651Z,11.37
2019-05-20T02:56:33.505Z,11.47
2019-05-20T02:59:02.300Z,11.87
2019-05-20T03:01:31.088Z,10.97
2019-05-20T03:04:10.587Z,11.77
2019-05-20T03:06:31.403Z,10.97
2019-05-20T03:09:00.219Z,10.67
2019-05-20T03:11:29.193Z,11.73
2019-05-20T03:13:58.051Z,11.20
2019-05-20T03:16:26.848Z,12.43
2019-05-20T03:18:55.693Z,12.57
2019-05-20T03:21:24.478Z,11.17
2019-05-20T03:23:53.624Z,11.50
2019-05-20T03:26:22.339Z,12.43
2019-05-20T03:28:51.499Z,11.27
2019-05-20T03:31:21.412Z,11.50
2019-05-20T03:33:50.166Z,12.77
2019-05-20T03:36:20.237Z,11.43
2019-05-20T03:38:49.688Z,12.00
2019-05-20T03:41:18.564Z,11.33
2019-05-20T03:43:47.394Z,12.43
2019-05-20T03:46:16.212Z,11.70
2019-05-20T03:48:46.092Z,11.80
2019-05-20T03:51:17.007Z,13.23
2019-05-20T03:53:45.928Z,11.83
2019-05-20T03:56:15.019Z,11.97
2019-05-20T03:58:43.823Z,11.87
2019-05-20T04:01:12.640Z,13.47
2019-05-20T04:03:42.919Z,13.40
2019-05-20T04:06:12.824Z,12.63
2019-05-20T04:08:41.614Z,11.87
2019-05-20T04:11:16.640Z,12.50
2019-05-20T04:13:45.417Z,12.67
2019-05-20T04:16:15.335Z,12.73
2019-05-20T04:18:44.145Z,10.93
2019-05-20T04:21:15.019Z,12.20
2019-05-20T04:23:43.842Z,13.13
2019-05-20T04:26:13.732Z,12.00
2019-05-20T04:28:42.624Z,14.47
2019-05-20T04:31:11.736Z,13.10
2019-05-20T04:33:40.613Z,13.07
2019-05-20T04:36:09.532Z,13.33
2019-05-20T04:38:38.633Z,12.83
2019-05-20T04:41:07.534Z,12.13
2019-05-20T04:43:36.388Z,13.53
2019-05-20T04:46:05.136Z,15.20
2019-05-20T04:48:33.861Z,12.27
2019-05-20T04:51:02.714Z,13.60
2019-05-20T04:53:31.637Z,12.43
2019-05-20T04:56:00.561Z,13.37
2019-05-20T04:58:29.301Z,13.10
2019-05-20T05:00:59.465Z,12.80
2019-05-20T05:03:28.670Z,13.83
2019-05-20T05:05:57.493Z,12.10
2019-05-20T05:08:26.367Z,12.43
2019-05-20T05:10:55.844Z,12.63
2019-05-20T05:13:25.109Z,13.13
2019-05-20T05:15:54.378Z,12.07
2019-05-20T05:18:23.615Z,13.67
2019-05-20T05:20:52.464Z,15.20
2019-05-20T05:23:23.370Z,13.17
2019-05-20T05:25:52.281Z,13.43
2019-05-20T05:28:21.247Z,13.50
2019-05-20T05:30:50.365Z,13.47
2019-05-20T05:33:19.248Z,12.93
2019-05-20T05:35:53.402Z,13.07
2019-05-20T05:38:18.996Z,13.10
2019-05-20T05:40:48.224Z,15.35
2019-05-20T05:43:17.384Z,13.37
2019-05-20T05:45:46.295Z,13.20
2019-05-20T05:48:15.183Z,13.50
2019-05-20T05:50:44.087Z,13.97
2019-05-20T05:53:13.149Z,15.07
2019-05-20T05:55:42.410Z,14.10
2019-05-20T05:58:11.765Z,14.53
2019-05-20T06:00:40.994Z,14.00
2019-05-20T06:03:22.169Z,16.20
2019-05-20T06:05:51.164Z,15.37
2019-05-20T06:08:19.975Z,16.03
2019-05-20T06:10:49.075Z,14.67
2019-05-20T06:13:18.045Z,15.00
2019-05-20T06:15:58.073Z,17.40
2019-05-20T06:18:26.906Z,16.77
2019-05-20T06:20:55.844Z,19.27
2019-05-20T06:23:24.730Z,14.77
2019-05-20T06:25:54.754Z,17.17
2019-05-20T06:28:23.642Z,16.40
2019-05-20T06:30:52.602Z,16.30
2019-05-20T06:33:21.743Z,16.83
2019-05-20T06:35:50.862Z,16.43
2019-05-20T06:38:43.601Z,16.10
2019-05-20T06:41:12.676Z,15.90
2019-05-20T06:43:41.607Z,14.60
2019-05-20T06:46:10.525Z,14.97
2019-05-20T06:48:39.434Z,14.77
2019-05-20T06:51:08.386Z,13.90
2019-05-20T06:53:37.539Z,13.83
2019-05-20T06:56:09.515Z,14.47
2019-05-20T06:58:38.342Z,13.73
2019-05-20T07:01:07.171Z,14.83
2019-05-20T07:03:36.037Z,14.40
2019-05-20T07:06:05.044Z,13.40
2019-05-20T07:08:33.772Z,15.23
2019-05-20T07:11:02.625Z,15.50
2019-05-20T07:13:42.078Z,16.33
2019-05-20T07:16:11.118Z,15.47
2019-05-20T07:18:40.274Z,15.97
2019-05-20T07:21:09.070Z,15.57
2019-05-20T07:23:37.967Z,16.17
2019-05-20T07:26:06.863Z,14.77
2019-05-20T07:28:35.686Z,14.83
2019-05-20T07:31:05.027Z,15.50
2019-05-20T07:33:34.189Z,18.60
2019-05-20T07:36:03.034Z,14.10
2019-05-20T07:38:31.880Z,16.00
2019-05-20T07:41:00.851Z,16.10
2019-05-20T07:43:29.946Z,15.63
2019-05-20T07:45:59.238Z,15.03
2019-05-20T07:48:28.681Z,14.47
2019-05-20T07:50:57.856Z,13.80
2019-05-20T07:53:26.853Z,13.67
2019-05-20T07:56:03.279Z,13.33
2019-05-20T07:58:34.003Z,13.80
2019-05-20T08:01:03.169Z,12.07
2019-05-20T08:03:32.141Z,11.80
2019-05-20T08:06:01.269Z,11.10
2019-05-20T08:08:30.238Z,11.40
2019-05-20T08:10:59.621Z,10.67
2019-05-20T08:13:28.557Z,10.07
2019-05-20T08:15:57.420Z,10.83
2019-05-20T08:18:26.276Z,10.63
2019-05-20T08:20:55.001Z,10.60
2019-05-20T08:23:25.189Z,9.90
2019-05-20T08:25:54.228Z,11.20
2019-05-20T08:28:23.174Z,11.53
2019-05-20T08:30:52.089Z,12.43
2019-05-20T08:33:21.202Z,13.77
2019-05-20T08:35:50.435Z,13.70
2019-05-20T08:38:19.437Z,11.30
2019-05-20T08:40:49.010Z,10.60
2019-05-20T08:43:17.901Z,10.73
2019-05-20T08:45:46.847Z,10.13
2019-05-20T08:48:15.642Z,12.90
2019-05-20T08:50:44.509Z,11.37
2019-05-20T08:53:13.361Z,11.33
2019-05-20T08:55:42.192Z,13.20
2019-05-20T08:58:11.263Z,11.57
2019-05-20T09:00:40.446Z,10.60
2019-05-20T09:03:09.541Z,10.87
2019-05-20T09:05:39.046Z,8.97
2019-05-20T09:08:08.414Z,9.70
2019-05-20T09:10:39.444Z,10.00
2019-05-20T09:13:08.171Z,10.20
2019-05-20T09:15:37.052Z,10.27
2019-05-20T09:18:12.957Z,10.53
2019-05-20T09:20:41.943Z,10.20
2019-05-20T09:23:11.030Z,11.03
2019-05-20T09:25:39.979Z,9.97
2019-05-20T09:28:09.283Z,11.03
2019-05-20T09:30:38.327Z,10.57
2019-05-20T09:33:07.357Z,10.03
2019-05-20T09:35:36.281Z,10.23
2019-05-20T09:38:18.429Z,10.70
2019-05-20T09:40:41.192Z,10.77
2019-05-20T09:43:10.226Z,10.27
2019-05-20T09:45:39.293Z,11.97
2019-05-20T09:48:08.427Z,12.25
2019-05-20T09:50:37.266Z,10.30
2019-05-20T09:53:07.556Z,9.63
2019-05-20T09:55:36.975Z,10.67
2019-05-20T09:58:05.928Z,10.23
2019-05-20T10:00:34.710Z,11.37
2019-05-20T10:03:03.752Z,11.87
2019-05-20T10:05:32.615Z,14.70
2019-05-20T10:08:01.584Z,10.30
2019-05-20T10:10:30.449Z,10.70
2019-05-20T10:12:59.685Z,10.67
2019-05-20T10:15:28.940Z,12.43
2019-05-20T10:17:58.428Z,11.93
2019-05-20T10:20:27.293Z,11.40
2019-05-20T10:22:56.038Z,10.77
2019-05-20T10:25:25.091Z,11.17
2019-05-20T10:27:57.358Z,11.73
2019-05-20T10:30:24.448Z,10.37
2019-05-20T10:32:53.312Z,12.33
2019-05-20T10:35:22.243Z,11.67
2019-05-20T10:37:51.334Z,14.00
2019-05-20T10:40:20.370Z,12.13
2019-05-20T10:42:50.659Z,12.97
2019-05-20T10:45:19.582Z,11.73
2019-05-20T10:47:48.328Z,10.40
2019-05-20T10:50:17.607Z,9.30
2019-05-20T10:52:46.424Z,9.93
2019-05-20T10:55:16.966Z,11.53
2019-05-20T10:57:46.017Z,11.50
2019-05-20T11:00:16.591Z,11.27
2019-05-20T11:02:45.430Z,12.53
2019-05-20T11:05:17.300Z,12.53
2019-05-20T11:07:46.500Z,13.90
2019-05-20T11:10:15.608Z,13.83
2019-05-20T11:12:44.928Z,13.03
2019-05-20T11:15:13.803Z,14.07
2019-05-20T11:17:42.693Z,15.23
2019-05-20T11:20:11.712Z,17.10
2019-05-20T11:22:40.591Z,15.93
2019-05-20T11:25:09.626Z,15.63
2019-05-20T11:33:00.037Z,18.47
2019-05-20T11:35:29.916Z,19.13
2019-05-20T11:37:59.011Z,21.40
2019-05-20T11:40:28.330Z,22.07
2019-05-20T11:42:57.339Z,21.13
2019-05-20T11:45:26.426Z,20.97
2019-05-20T11:47:55.378Z,23.70
2019-05-20T11:50:24.293Z,23.17
2019-05-20T11:52:53.346Z,20.17
2019-05-20T11:55:22.451Z,22.80
2019-05-20T11:57:51.322Z,23.13
2019-05-20T12:00:20.634Z,23.33
2019-05-20T12:02:49.580Z,23.97
2019-05-20T12:05:18.426Z,26.37
2019-05-20T12:07:47.168Z,24.17
2019-05-20T12:10:16.134Z,24.00
2019-05-20T12:12:46.173Z,20.77
2019-05-20T12:15:15.428Z,21.97
2019-05-20T12:17:44.213Z,21.70
2019-05-20T12:20:13.152Z,20.77
2019-05-20T12:22:42.225Z,17.67
2019-05-20T12:25:11.124Z,16.87
2019-05-20T12:27:42.519Z,19.50
2019-05-20T12:30:11.608Z,21.07
2019-05-20T12:32:40.742Z,22.67
2019-05-20T12:35:09.869Z,19.53
2019-05-20T12:37:39.656Z,20.63
2019-05-20T12:40:09.078Z,20.93
2019-05-20T12:42:38.075Z,18.87
2019-05-20T12:45:07.513Z,18.80
2019-05-20T12:47:36.389Z,18.90
2019-05-20T12:50:05.793Z,19.80
2019-05-20T12:55:17.229Z,18.47
2019-05-20T13:00:22.536Z,21.47
2019-05-20T13:02:51.751Z,22.37
2019-05-20T13:07:56.911Z,20.67
2019-05-20T13:10:29.794Z,19.37
2019-05-20T13:12:56.978Z,22.93
2019-05-20T13:15:25.952Z,23.62
2019-05-20T14:56:32.655Z,36.70
2019-05-20T14:59:03.898Z,28.70
2019-05-20T15:01:33.092Z,28.13
2019-05-20T15:04:02.221Z,23.63
2019-05-20T15:06:32.651Z,30.47
2019-05-20T15:09:04.431Z,30.07
2019-05-20T15:11:38.266Z,26.33
2019-05-20T15:14:04.483Z,28.40
2019-05-20T15:16:33.932Z,23.87
2019-05-20T15:19:02.933Z,37.67
2019-05-20T15:21:31.960Z,27.80
2019-05-20T15:24:00.956Z,30.73
2019-05-20T15:26:30.130Z,34.57
2019-05-20T15:28:59.271Z,32.77
2019-05-20T15:31:28.524Z,24.40
2019-05-20T15:33:57.935Z,21.73
2019-05-20T15:36:26.923Z,22.77
2019-05-20T15:38:59.266Z,20.47
2019-05-20T15:41:30.783Z,20.33
2019-05-20T15:43:59.757Z,27.03
2019-05-20T15:46:28.666Z,26.93
2019-05-20T15:48:58.194Z,25.40
2019-05-20T15:51:27.522Z,25.77
2019-05-20T15:53:56.503Z,26.63
2019-05-20T15:56:25.599Z,33.30
2019-05-20T15:59:11.236Z,22.33
2019-05-20T16:01:41.201Z,44.60
2019-05-20T16:04:10.166Z,33.90
2019-05-20T16:06:38.893Z,30.27
2019-05-20T16:09:08.009Z,34.57
2019-05-20T16:11:36.971Z,62.50
2019-05-20T16:14:05.741Z,45.17
2019-05-20T16:16:34.643Z,47.83
2019-05-20T16:19:03.470Z,36.37
2019-05-20T16:21:32.298Z,33.17
2019-05-20T16:24:01.954Z,28.93
2019-05-20T16:26:30.940Z,30.87
2019-05-20T16:29:10.807Z,31.40
2019-05-20T16:31:39.621Z,39.00
2019-05-20T16:34:08.565Z,32.07
2019-05-20T16:36:43.323Z,40.60
2019-05-20T16:39:12.137Z,32.47
2019-05-20T16:41:43.119Z,35.43
2019-05-20T16:44:12.399Z,46.37
2019-05-20T16:46:42.322Z,40.90
2019-05-20T16:49:11.294Z,42.13
2019-05-20T16:51:40.335Z,43.53
2019-05-20T16:54:09.762Z,66.03
2019-05-20T16:56:38.678Z,41.57
2019-05-20T16:59:08.771Z,59.43
2019-05-20T17:04:14.346Z,78.90
2019-05-20T17:06:48.352Z,48.67
2019-05-20T17:09:18.427Z,42.57
2019-05-20T17:11:48.089Z,54.13
2019-05-20T17:14:22.359Z,69.43
2019-05-20T17:35:39.921Z,55.83
2019-05-20T17:38:09.841Z,62.50
2019-05-20T17:40:38.848Z,45.90
2019-05-20T17:43:09.077Z,38.87
2019-05-20T17:45:38.415Z,35.73
2019-05-20T17:48:07.858Z,40.30
2019-05-20T17:50:37.893Z,31.93
2019-05-20T17:53:10.335Z,34.43
2019-05-20T17:55:39.354Z,24.90
2019-05-20T17:58:08.570Z,29.60
2019-05-20T18:00:39.759Z,26.90
2019-05-20T18:03:09.079Z,23.07
2019-05-20T18:05:38.092Z,18.50
2019-05-20T18:08:07.555Z,23.03
2019-05-20T18:10:37.861Z,31.93
2019-05-20T18:13:07.188Z,30.63
2019-05-20T18:15:38.202Z,23.93
2019-05-20T18:18:09.714Z,31.97
2019-05-20T18:20:38.962Z,30.93
2019-05-20T18:23:08.255Z,26.63
2019-05-20T18:25:37.165Z,32.57
2019-05-20T18:28:06.166Z,29.97
2019-05-20T18:30:35.280Z,25.23
2019-05-20T18:33:04.601Z,27.53
2019-05-20T18:35:42.740Z,31.53
2019-05-20T18:38:12.863Z,29.30
2019-05-20T18:40:42.160Z,31.53
2019-05-20T18:43:11.078Z,21.27
2019-05-20T18:45:41.714Z,17.80
2019-05-20T18:48:10.537Z,19.87
2019-05-20T18:50:39.863Z,15.83
2019-05-20T18:53:10.873Z,15.93
2019-05-20T18:55:39.889Z,17.47
2019-05-20T18:58:08.787Z,17.47
2019-05-20T19:00:37.735Z,13.97
2019-05-20T19:03:07.075Z,18.83
2019-05-20T19:05:35.881Z,18.80
2019-05-20T19:08:07.092Z,20.03
2019-05-20T19:10:36.089Z,18.37
2019-05-20T19:13:08.106Z,16.50
2019-05-20T19:15:37.277Z,29.27
2019-05-20T19:18:06.374Z,29.33
2019-05-20T19:20:35.222Z,20.10
2019-05-20T19:23:05.649Z,19.47
2019-05-20T19:25:37.913Z,22.10
2019-05-20T19:28:05.325Z,24.30
2019-05-20T19:30:37.543Z,23.03
2019-05-20T19:33:11.090Z,20.97
2019-05-20T19:35:43.085Z,20.47
2019-05-20T19:38:14.490Z,24.50
2019-05-20T19:40:48.178Z,28.13
2019-05-20T19:43:20.686Z,30.63
2019-05-20T19:51:50.401Z,23.37
2019-05-20T19:54:24.165Z,28.23
2019-05-20T20:10:10.448Z,20.70
